Time;durP1;ratioP1;P1;durP2;ratioP2;P2;SDS_P1;SDS_P2;PMS_P1;PMS_P2;Temp;Humidity;BMP_temperature;BMP_pressure;BME280_temperature;BME280_humidity;BME280_pressure;Samples;Min_cycle;Max_cycle;Signal;HPM_P1;HPM_P2
2023/09/06 00:02:18;;;;;;;3.13;2.58;;;14.40;99.90;14.40;101245.00;;;;5025165;27;116793;-65
2023/09/06 00:04:45;;;;;;;4.00;2.10;;;14.40;99.90;14.40;101247.00;;;;5029194;27;116947;-65
2023/09/06 00:07:11;;;;;;;3.87;2.60;;;14.40;99.90;14.40;101243.00;;;;5032598;27;90937;-67
2023/09/06 00:09:36;;;;;;;2.90;2.67;;;14.40;99.90;14.40;101248.00;;;;5029461;27;108396;-65
2023/09/06 00:12:02;;;;;;;3.93;2.73;;;14.40;99.90;14.30;101245.00;;;;5030173;27;102412;-65
2023/09/06 00:14:29;;;;;;;9.23;2.25;;;14.40;99.90;14.30;101243.00;;;;5008859;27;109889;-65
2023/09/06 00:16:55;;;;;;;3.35;2.58;;;14.30;99.90;14.30;101252.00;;;;5039031;27;89399;-65
2023/09/06 00:19:20;;;;;;;4.50;2.58;;;14.30;99.90;14.30;101245.00;;;;5029817;27;99087;-65
2023/09/06 00:21:47;;;;;;;4.57;3.53;;;14.30;99.90;14.20;101245.00;;;;5031032;27;116216;-66
2023/09/06 00:24:14;;;;;;;3.67;2.60;;;14.20;99.90;14.20;101253.00;;;;5027407;27;87966;-65
2023/09/06 00:26:40;;;;;;;3.47;2.88;;;14.20;99.90;14.20;101237.00;;;;5026288;27;87853;-65
2023/09/06 00:29:07;;;;;;;3.40;2.42;;;14.20;99.90;14.10;101240.00;;;;5029536;27;87085;-65
2023/09/06 00:31:36;;;;;;;3.53;2.80;;;14.10;99.90;14.00;101235.00;;;;5031384;27;88682;-66
2023/09/06 00:34:02;;;;;;;3.50;2.60;;;14.00;99.90;14.00;101230.00;;;;5032178;27;103619;-66
2023/09/06 00:36:29;;;;;;;4.30;2.67;;;14.00;99.90;13.90;101229.00;;;;5035468;27;89200;-66
2023/09/06 00:38:58;;;;;;;2.80;2.60;;;13.90;99.90;13.90;101233.00;;;;5029994;27;87998;-66
2023/09/06 00:41:24;;;;;;;3.57;2.67;;;13.90;99.90;13.80;101228.00;;;;5030086;27;100872;-66
2023/09/06 00:43:50;;;;;;;3.70;2.57;;;13.80;99.90;13.80;101220.00;;;;5027118;27;88062;-66
2023/09/06 00:46:18;;;;;;;4.17;3.13;;;13.80;99.90;13.80;101224.00;;;;5026109;27;87988;-66
2023/09/06 00:48:43;;;;;;;4.40;2.63;;;13.70;99.90;13.70;101229.00;;;;5021050;27;88088;-65
2023/09/06 00:51:09;;;;;;;2.90;2.70;;;13.70;99.90;13.70;101225.00;;;;5032516;27;117410;-65
2023/09/06 00:53:36;;;;;;;2.30;2.10;;;13.60;99.90;13.60;101229.00;;;;5037799;27;117140;-66
2023/09/06 00:56:11;;;;;;;4.37;2.77;;;13.60;99.90;13.60;101229.00;;;;5028399;27;88785;-66
2023/09/06 00:58:38;;;;;;;3.83;2.87;;;13.60;99.90;13.50;101231.00;;;;5007880;27;88196;-66
2023/09/06 01:01:06;;;;;;;2.67;2.47;;;13.50;99.90;13.40;101229.00;;;;5009436;27;89260;-65
2023/09/06 01:03:32;;;;;;;3.27;2.50;;;13.40;99.90;13.40;101225.00;;;;5027971;27;89651;-65
2023/09/06 01:06:14;;;;;;;3.17;2.47;;;13.40;99.90;13.40;101234.00;;;;5026891;27;110928;-67
2023/09/06 01:08:47;;;;;;;2.43;2.23;;;13.40;99.90;13.30;101241.00;;;;5018035;27;88373;-67
2023/09/06 01:11:20;;;;;;;9.57;2.80;;;13.30;99.90;13.30;101228.00;;;;5013285;27;111297;-67
2023/09/06 01:13:52;;;;;;;3.43;2.27;;;13.30;99.90;13.30;101235.00;;;;5034218;27;88284;-67
2023/09/06 01:16:32;;;;;;;6.23;3.43;;;13.30;99.90;13.20;101245.00;;;;5028712;27;97873;-67
2023/09/06 01:18:59;;;;;;;3.30;2.40;;;13.20;99.90;13.20;101244.00;;;;5032183;27;87357;-65
2023/09/06 01:21:29;;;;;;;11.40;2.80;;;13.20;99.90;13.20;101242.00;;;;5031272;27;89139;-66
2023/09/06 01:23:56;;;;;;;2.93;2.40;;;13.20;99.90;13.10;101245.00;;;;5022844;27;110993;-66
2023/09/06 01:26:22;;;;;;;3.43;3.00;;;13.10;99.90;13.10;101226.00;;;;5026058;27;110719;-66
2023/09/06 01:28:49;;;;;;;5.00;2.83;;;13.10;99.90;13.10;101223.00;;;;5011204;27;101843;-66
2023/09/06 01:31:16;;;;;;;3.97;2.73;;;13.10;99.90;13.10;101224.00;;;;5019441;27;88290;-66
2023/09/06 01:33:42;;;;;;;3.50;3.20;;;13.10;99.90;13.00;101234.00;;;;5031113;27;88573;-66
2023/09/06 01:36:07;;;;;;;4.83;2.40;;;13.00;99.90;13.00;101239.00;;;;5026813;27;87830;-66
2023/09/06 01:38:33;;;;;;;3.00;2.60;;;13.10;99.90;13.00;101233.00;;;;5030499;27;108752;-66
2023/09/06 01:41:01;;;;;;;4.60;2.80;;;13.00;99.90;13.00;101234.00;;;;5004594;27;116593;-66
2023/09/06 01:43:28;;;;;;;4.00;2.63;;;13.00;99.90;13.00;101235.00;;;;5035405;27;100884;-66
2023/09/06 01:45:54;;;;;;;4.93;2.27;;;13.00;99.90;13.00;101234.00;;;;5032563;27;87899;-67
2023/09/06 01:48:23;;;;;;;2.97;2.60;;;13.00;99.90;13.00;101230.00;;;;5031315;27;87682;-65
2023/09/06 01:50:49;;;;;;;3.53;2.80;;;13.00;99.90;13.00;101229.00;;;;5042205;27;88872;-67
2023/09/06 01:53:15;;;;;;;4.57;2.70;;;13.00;99.90;12.90;101236.00;;;;5032811;27;88818;-66
2023/09/06 01:55:42;;;;;;;3.87;3.47;;;13.00;99.90;12.90;101224.00;;;;5035696;27;110432;-66
2023/09/06 01:58:16;;;;;;;5.77;3.13;;;12.90;99.90;12.90;101232.00;;;;5027178;27;88026;-66
2023/09/06 02:00:44;;;;;;;3.60;2.33;;;12.90;99.90;12.90;101233.00;;;;5031983;27;89107;-66
2023/09/06 02:03:14;;;;;;;3.50;2.70;;;12.90;99.90;12.90;101226.00;;;;5030949;27;95554;-66
2023/09/06 02:05:43;;;;;;;3.70;2.63;;;12.90;99.90;12.90;101225.00;;;;5028456;27;87679;-66
2023/09/06 02:08:09;;;;;;;4.67;2.43;;;12.80;99.90;12.80;101226.00;;;;5035660;27;87068;-67
2023/09/06 02:10:35;;;;;;;4.27;3.20;;;12.90;99.90;12.80;101227.00;;;;5006546;27;88038;-66
2023/09/06 02:13:01;;;;;;;3.87;2.90;;;12.80;99.90;12.80;101217.00;;;;5027910;27;114799;-66
2023/09/06 02:15:29;;;;;;;2.67;2.47;;;12.90;99.90;12.80;101221.00;;;;5030806;27;109846;-66
2023/09/06 02:17:55;;;;;;;3.20;2.03;;;12.80;99.90;12.80;101217.00;;;;5029109;27;87755;-67
2023/09/06 02:20:21;;;;;;;4.07;2.50;;;12.80;99.90;12.70;101216.00;;;;5025438;27;97882;-66
2023/09/06 02:22:52;;;;;;;4.33;3.17;;;12.70;99.90;12.70;101212.00;;;;5021746;27;88124;-66
2023/09/06 02:25:21;;;;;;;2.77;2.47;;;12.70;99.90;12.70;101218.00;;;;5024229;27;87983;-66
2023/09/06 02:27:47;;;;;;;3.13;2.83;;;12.70;99.90;12.60;101222.00;;;;5025436;27;87719;-66
2023/09/06 02:30:14;;;;;;;3.87;3.30;;;12.60;99.90;12.60;101220.00;;;;5027568;27;116724;-67
2023/09/06 02:32:40;;;;;;;4.93;3.40;;;12.60;99.90;12.50;101214.00;;;;5024440;27;88972;-67
2023/09/06 02:35:07;;;;;;;4.93;2.60;;;12.60;99.90;12.50;101218.00;;;;5026118;27;87922;-67
2023/09/06 02:37:33;;;;;;;3.93;3.10;;;12.50;99.90;12.40;101218.00;;;;5027504;27;87693;-67
2023/09/06 02:40:00;;;;;;;3.77;2.87;;;12.50;99.90;12.40;101215.00;;;;5024152;27;88752;-66
2023/09/06 02:42:26;;;;;;;4.03;3.10;;;12.40;99.90;12.40;101218.00;;;;5019705;27;93547;-66
2023/09/06 02:44:52;;;;;;;3.27;2.80;;;12.40;99.90;12.30;101211.00;;;;5027249;27;87978;-66
2023/09/06 02:47:17;;;;;;;3.50;2.10;;;12.40;99.90;12.30;101208.00;;;;5028372;27;87939;-65
2023/09/06 02:49:45;;;;;;;3.63;2.70;;;12.30;99.90;12.30;101217.00;;;;5025877;27;113890;-66
2023/09/06 02:52:28;;;;;;;3.43;2.80;;;12.40;99.90;12.30;101218.00;;;;5004299;27;88548;-65
2023/09/06 02:55:04;;;;;;;3.43;2.37;;;12.30;99.90;12.30;101223.00;;;;5022729;27;87851;-65
2023/09/06 02:57:37;;;;;;;2.23;1.87;;;12.30;99.90;12.20;101221.00;;;;5005391;27;87339;-66
2023/09/06 03:00:07;;;;;;;3.57;2.50;;;12.30;99.90;12.20;101231.00;;;;5022827;27;116852;-66
2023/09/06 03:02:33;;;;;;;3.07;2.77;;;12.20;99.90;12.20;101241.00;;;;5022524;27;88927;-67
2023/09/06 03:05:03;;;;;;;3.53;2.53;;;12.30;99.90;12.20;101239.00;;;;5026843;27;88937;-66
2023/09/06 03:07:31;;;;;;;4.07;2.20;;;12.20;99.90;12.20;101243.00;;;;5026326;27;87955;-66
2023/09/06 03:09:57;;;;;;;3.07;2.37;;;12.20;99.90;12.20;101238.00;;;;5025704;27;87833;-67
2023/09/06 03:12:23;;;;;;;8.23;3.70;;;12.20;99.90;12.20;101240.00;;;;5025528;27;117935;-66
2023/09/06 03:14:50;;;;;;;4.23;3.07;;;12.20;99.90;12.20;101233.00;;;;5026130;27;88778;-66
2023/09/06 03:17:18;;;;;;;6.27;3.30;;;12.20;99.90;12.10;101242.00;;;;5025215;27;108935;-66
2023/09/06 03:19:53;;;;;;;4.23;3.83;;;12.20;99.90;12.10;101248.00;;;;5023993;27;88165;-66
2023/09/06 03:22:22;;;;;;;3.37;2.83;;;12.20;99.90;12.10;101234.00;;;;5022265;27;88277;-66
2023/09/06 03:24:55;;;;;;;4.73;3.63;;;12.20;99.90;12.10;101237.00;;;;5008430;27;88105;-66
2023/09/06 03:27:20;;;;;;;3.80;3.40;;;12.10;99.90;12.10;101242.00;;;;5020276;27;89298;-66
2023/09/06 03:29:51;;;;;;;5.37;3.83;;;12.10;99.90;12.00;101244.00;;;;5026597;27;94553;-66
2023/09/06 03:32:20;;;;;;;2.77;2.33;;;12.10;99.90;12.00;101239.00;;;;5024708;27;89068;-66
2023/09/06 03:34:46;;;;;;;4.20;3.27;;;12.10;99.90;12.00;101239.00;;;;5024602;27;87977;-66
2023/09/06 03:37:18;;;;;;;5.07;3.33;;;12.00;99.90;12.00;101240.00;;;;5022501;27;109816;-66
2023/09/06 03:39:43;;;;;;;4.73;3.47;;;12.00;99.90;11.90;101238.00;;;;5023330;27;89345;-66
2023/09/06 03:42:09;;;;;;;4.43;2.70;;;12.00;99.90;11.90;101233.00;;;;5024535;27;115686;-66
2023/09/06 03:44:38;;;;;;;5.43;3.50;;;12.00;99.90;11.90;101237.00;;;;5023495;27;94623;-66
2023/09/06 03:47:05;;;;;;;3.83;2.60;;;11.90;99.90;11.80;101227.00;;;;5025393;27;108240;-66
2023/09/06 03:49:35;;;;;;;4.70;2.93;;;11.90;99.90;11.80;101231.00;;;;5029060;27;88481;-66
2023/09/06 03:52:04;;;;;;;3.00;2.70;;;11.80;99.90;11.70;101227.00;;;;5024570;27;88584;-64
2023/09/06 03:54:34;;;;;;;2.50;2.30;;;11.80;99.90;11.70;101221.00;;;;5025326;27;89195;-66
2023/09/06 03:57:03;;;;;;;2.50;2.30;;;11.70;99.90;11.70;101225.00;;;;5021844;27;87835;-66
2023/09/06 03:59:35;;;;;;;5.67;3.60;;;11.70;99.90;11.60;101228.00;;;;5028430;27;109237;-66
2023/09/06 04:02:08;;;;;;;4.40;3.47;;;11.70;99.90;11.60;101236.00;;;;5022166;27;88189;-66
2023/09/06 04:04:34;;;;;;;4.40;3.73;;;11.70;99.90;11.60;101234.00;;;;5027138;27;88028;-66
2023/09/06 04:07:01;;;;;;;3.40;3.10;;;11.60;99.90;11.50;101235.00;;;;5027478;27;88579;-67
2023/09/06 04:09:37;;;;;;;4.17;2.93;;;11.60;99.90;11.50;101239.00;;;;5023149;27;110891;-67
2023/09/06 04:12:05;;;;;;;4.03;3.37;;;11.60;99.90;11.50;101247.00;;;;5023619;27;88279;-66
2023/09/06 04:14:35;;;;;;;4.03;2.80;;;11.60;99.90;11.50;101242.00;;;;5028171;27;87762;-66
2023/09/06 04:17:01;;;;;;;3.93;3.17;;;11.50;99.90;11.40;101242.00;;;;5024005;27;88077;-66
2023/09/06 04:19:27;;;;;;;2.80;2.23;;;11.50;99.90;11.40;101241.00;;;;5024588;27;90069;-66
2023/09/06 04:21:53;;;;;;;4.67;2.80;;;11.50;99.90;11.40;101237.00;;;;5031022;27;117996;-65
2023/09/06 04:24:20;;;;;;;7.43;3.23;;;11.50;99.90;11.40;101239.00;;;;5028438;27;87971;-65
2023/09/06 04:26:46;;;;;;;4.63;2.83;;;11.50;99.90;11.40;101247.00;;;;5025122;27;87858;-66
2023/09/06 04:29:11;;;;;;;5.70;3.03;;;11.50;99.90;11.40;101243.00;;;;5026732;27;118113;-66
2023/09/06 04:31:41;;;;;;;4.17;2.67;;;11.50;99.90;11.40;101253.00;;;;5024722;27;116877;-66
2023/09/06 04:34:06;;;;;;;3.60;3.03;;;11.40;99.90;11.30;101235.00;;;;5028262;27;87819;-65
2023/09/06 04:36:36;;;;;;;6.27;4.37;;;11.40;99.90;11.30;101250.00;;;;5027256;27;108006;-65
2023/09/06 04:39:03;;;;;;;4.50;2.60;;;11.40;99.90;11.30;101255.00;;;;5026501;27;88592;-66
2023/09/06 04:41:31;;;;;;;4.27;3.20;;;11.30;99.90;11.30;101259.00;;;;5023865;27;89188;-66
2023/09/06 04:43:57;;;;;;;6.13;3.13;;;11.30;99.90;11.30;101262.00;;;;5025686;27;89370;-66
2023/09/06 04:46:22;;;;;;;6.73;3.50;;;11.30;99.90;11.30;101251.00;;;;5024102;27;106763;-67
2023/09/06 04:48:48;;;;;;;4.20;3.60;;;11.30;99.90;11.30;101247.00;;;;5027689;27;88217;-66
2023/09/06 04:51:14;;;;;;;3.60;2.83;;;11.30;99.90;11.30;101253.00;;;;5026768;27;117642;-66
2023/09/06 04:53:40;;;;;;;4.23;2.50;;;11.40;99.90;11.40;101260.00;;;;5031343;27;88244;-65
2023/09/06 04:56:06;;;;;;;2.50;2.20;;;11.40;99.90;11.50;101263.00;;;;5027542;27;99093;-65
2023/09/06 04:58:33;;;;;;;4.47;2.80;;;11.50;99.90;11.60;101268.00;;;;5024589;27;89057;-66
2023/09/06 05:01:06;;;;;;;4.43;3.53;;;11.50;99.90;11.70;101253.00;;;;5030803;27;88575;-65
2023/09/06 05:03:33;;;;;;;4.37;3.00;;;11.70;99.90;11.80;101262.00;;;;5005801;27;88888;-66
2023/09/06 05:06:02;;;;;;;2.90;2.33;;;11.80;99.90;11.90;101263.00;;;;5033641;27;87935;-67
2023/09/06 05:08:27;;;;;;;5.30;3.00;;;11.90;99.90;12.00;101275.00;;;;5027998;27;89389;-67
2023/09/06 05:10:53;;;;;;;6.40;3.93;;;12.00;99.90;12.10;101266.00;;;;5028482;27;117515;-66
2023/09/06 05:13:19;;;;;;;5.30;3.03;;;12.10;99.90;12.30;101266.00;;;;5027231;27;108507;-65
2023/09/06 05:15:44;;;;;;;4.40;2.80;;;12.20;99.90;12.40;101278.00;;;;5027360;27;108449;-64
2023/09/06 05:18:10;;;;;;;4.73;3.87;;;12.30;99.90;12.50;101277.00;;;;5028913;27;92543;-66
2023/09/06 05:20:40;;;;;;;3.37;3.07;;;12.50;99.90;12.60;101276.00;;;;5031302;27;97903;-65
2023/09/06 05:23:11;;;;;;;4.97;3.27;;;12.50;99.90;12.70;101283.00;;;;5025998;27;102636;-67
2023/09/06 05:25:40;;;;;;;3.63;2.97;;;12.60;99.90;12.90;101277.00;;;;5015918;27;87633;-66
2023/09/06 05:28:09;;;;;;;5.80;3.77;;;12.80;99.90;13.00;101277.00;;;;5008516;27;88348;-66
2023/09/06 05:30:43;;;;;;;3.30;3.00;;;12.90;99.90;13.30;101278.00;;;;5029546;27;88552;-65
2023/09/06 05:33:10;;;;;;;4.33;3.27;;;13.10;99.90;13.50;101282.00;;;;5028738;27;88940;-66
2023/09/06 05:35:36;;;;;;;3.70;3.00;;;13.30;99.90;13.70;101282.00;;;;5014741;27;87513;-66
2023/09/06 05:38:05;;;;;;;4.57;2.57;;;13.50;99.90;13.90;101278.00;;;;5031337;27;99881;-67
2023/09/06 05:40:33;;;;;;;3.03;2.73;;;13.70;99.90;14.10;101293.00;;;;5027427;27;88790;-65
2023/09/06 05:42:59;;;;;;;4.53;3.83;;;13.90;99.90;14.30;101297.00;;;;5018175;27;87891;-66
2023/09/06 05:45:26;;;;;;;5.70;3.57;;;14.10;99.90;14.50;101296.00;;;;5022747;27;108458;-66
2023/09/06 05:47:53;;;;;;;3.63;3.33;;;14.30;99.90;14.70;101300.00;;;;5004888;27;89271;-66
2023/09/06 05:50:19;;;;;;;5.32;3.40;;;14.60;99.90;14.90;101310.00;;;;5030171;27;93680;-66
2023/09/06 05:52:44;;;;;;;3.47;2.60;;;14.70;99.90;15.10;101315.00;;;;5025078;27;88063;-66
2023/09/06 05:55:11;;;;;;;4.18;3.00;;;14.90;99.90;15.30;101310.00;;;;5030011;27;87844;-66
2023/09/06 05:57:37;;;;;;;4.00;2.90;;;15.10;99.90;15.50;101315.00;;;;5023158;27;92767;-65
2023/09/06 06:00:12;;;;;;;4.43;3.08;;;15.30;99.90;15.70;101313.00;;;;5027679;27;89854;-65
2023/09/06 06:02:39;;;;;;;5.85;3.05;;;15.60;99.90;16.00;101316.00;;;;5027408;27;88044;-66
2023/09/06 06:05:05;;;;;;;3.50;2.97;;;15.80;99.90;16.30;101324.00;;;;5026242;27;87966;-66
2023/09/06 06:07:31;;;;;;;2.90;2.45;;;16.10;99.90;16.60;101333.00;;;;5030772;27;88919;-66
2023/09/06 06:09:56;;;;;;;3.03;2.78;;;16.30;99.90;16.80;101328.00;;;;5027248;27;116510;-66
2023/09/06 06:12:22;;;;;;;3.10;2.72;;;16.60;99.90;17.10;101322.00;;;;5027332;27;87793;-66
2023/09/06 06:14:50;;;;;;;3.53;2.47;;;16.90;99.90;17.40;101326.00;;;;5023961;27;86837;-66
2023/09/06 06:17:16;;;;;;;2.85;2.53;;;17.20;99.90;17.70;101324.00;;;;5024255;27;88086;-66
2023/09/06 06:19:41;;;;;;;4.97;2.35;;;17.40;99.90;17.90;101321.00;;;;5022135;27;117364;-66
2023/09/06 06:22:07;;;;;;;3.65;2.03;;;17.70;99.90;18.20;101326.00;;;;5027264;27;88621;-66
2023/09/06 06:24:36;;;;;;;2.65;2.10;;;17.90;99.90;18.50;101317.00;;;;5023031;27;107728;-66
2023/09/06 06:27:02;;;;;;;2.58;2.38;;;18.20;99.90;18.80;101329.00;;;;5025367;27;117216;-66
2023/09/06 06:29:28;;;;;;;5.82;2.97;;;18.50;99.90;19.00;101326.00;;;;5025308;27;90669;-66
2023/09/06 06:31:53;;;;;;;3.33;2.13;;;18.80;99.90;19.30;101340.00;;;;5028067;27;88048;-66
2023/09/06 06:34:19;;;;;;;4.43;2.58;;;19.10;99.90;19.60;101331.00;;;;5024390;27;107938;-66
2023/09/06 06:36:48;;;;;;;1.75;1.65;;;19.40;99.90;19.90;101323.00;;;;5030025;27;88373;-66
2023/09/06 06:39:14;;;;;;;2.53;2.20;;;19.60;99.90;20.20;101331.00;;;;5027709;27;115021;-66
2023/09/06 06:41:41;;;;;;;3.08;1.92;;;19.90;99.90;20.40;101331.00;;;;5029756;27;109264;-66
2023/09/06 06:44:08;;;;;;;2.55;1.90;;;20.20;99.90;20.70;101336.00;;;;5032621;27;87901;-66
2023/09/06 06:46:37;;;;;;;3.92;1.92;;;20.40;99.90;21.00;101330.00;;;;5029073;27;89513;-66
2023/09/06 06:49:07;;;;;;;2.45;2.25;;;20.70;99.90;21.30;101332.00;;;;5027914;27;88532;-66
2023/09/06 06:51:38;;;;;;;3.60;2.00;;;21.00;99.90;21.60;101331.00;;;;5028471;27;87785;-67
2023/09/06 06:54:09;;;;;;;2.70;2.50;;;21.30;99.90;21.90;101327.00;;;;5030291;27;87686;-66
2023/09/06 06:56:36;;;;;;;3.20;1.80;;;21.70;99.90;22.10;101329.00;;;;5026254;27;88537;-65
2023/09/06 06:59:03;;;;;;;2.03;1.73;;;21.90;99.90;22.30;101316.00;;;;5024351;27;87741;-65
2023/09/06 07:01:30;;;;;;;2.47;2.10;;;22.10;99.00;22.60;101324.00;;;;5025402;27;93401;-65
2023/09/06 07:03:57;;;;;;;2.13;1.58;;;22.30;98.70;22.80;101314.00;;;;5026257;27;87373;-66
2023/09/06 07:06:24;;;;;;;2.35;1.70;;;22.60;98.20;23.00;101320.00;;;;5026723;27;88373;-66
2023/09/06 07:08:51;;;;;;;2.53;1.70;;;22.80;97.70;23.40;101325.00;;;;5027827;27;89030;-66
2023/09/06 07:11:19;;;;;;;1.73;1.63;;;23.00;96.80;23.60;101321.00;;;;5023415;27;88992;-66
2023/09/06 07:13:49;;;;;;;2.67;2.13;;;23.30;95.30;23.80;101332.00;;;;5025133;27;87846;-66
2023/09/06 07:16:20;;;;;;;1.67;1.58;;;23.50;94.30;23.90;101319.00;;;;5024297;27;89246;-66
2023/09/06 07:18:46;;;;;;;2.13;1.05;;;23.70;93.40;24.00;101325.00;;;;5027282;27;103841;-66
2023/09/06 07:21:14;;;;;;;2.97;1.80;;;23.80;93.20;24.20;101328.00;;;;5027529;27;87867;-66
2023/09/06 07:23:39;;;;;;;1.48;1.20;;;24.00;92.80;24.40;101335.00;;;;5030977;27;87960;-67
2023/09/06 07:26:06;;;;;;;2.67;1.95;;;24.10;92.40;24.60;101342.00;;;;5018402;27;115669;-66
2023/09/06 07:28:39;;;;;;;1.80;1.70;;;24.30;91.50;24.70;101339.00;;;;5033376;27;87547;-66
2023/09/06 07:31:05;;;;;;;2.10;1.90;;;24.40;90.50;24.80;101335.00;;;;5032992;27;87664;-66
2023/09/06 07:33:31;;;;;;;2.97;2.08;;;24.50;90.20;24.90;101335.00;;;;5026627;27;87792;-66
2023/09/06 07:35:57;;;;;;;2.67;1.70;;;24.70;90.00;25.10;101336.00;;;;5021820;27;100652;-66
2023/09/06 07:38:23;;;;;;;2.83;1.65;;;24.90;89.40;25.40;101344.00;;;;5023281;27;90124;-67
2023/09/06 07:41:03;;;;;;;5.32;2.10;;;25.10;88.70;25.70;101343.00;;;;5024329;27;109360;-66
2023/09/06 07:43:29;;;;;;;3.63;1.98;;;25.40;87.40;25.90;101361.00;;;;5023245;27;88340;-67
2023/09/06 07:45:57;;;;;;;1.92;1.20;;;25.60;85.40;26.10;101356.00;;;;5022559;27;118013;-67
2023/09/06 07:48:28;;;;;;;2.35;2.05;;;25.80;83.90;26.40;101356.00;;;;5023149;27;87894;-67
2023/09/06 07:50:58;;;;;;;2.45;1.83;;;26.10;83.10;26.60;101352.00;;;;5022855;27;87967;-67
2023/09/06 07:53:25;;;;;;;2.42;1.70;;;26.30;82.00;26.70;101359.00;;;;5025418;27;97128;-67
2023/09/06 07:55:52;;;;;;;2.15;1.63;;;26.50;80.60;27.00;101356.00;;;;5027670;27;87920;-67
2023/09/06 07:58:17;;;;;;;1.77;1.23;;;26.70;79.70;27.30;101359.00;;;;5023904;27;109144;-66
2023/09/06 08:00:43;;;;;;;2.35;1.60;;;27.00;79.10;27.70;101360.00;;;;5026794;27;88944;-66
2023/09/06 08:03:10;;;;;;;4.20;1.80;;;27.30;78.10;28.00;101359.00;;;;5027035;27;88433;-67
2023/09/06 08:05:37;;;;;;;1.35;1.08;;;27.70;77.00;28.30;101365.00;;;;5025640;27;88780;-67
2023/09/06 08:08:05;;;;;;;3.08;1.58;;;28.00;75.50;28.60;101358.00;;;;5009627;27;87871;-67
2023/09/06 08:10:30;;;;;;;1.50;1.05;;;28.30;74.60;28.90;101366.00;;;;5029945;27;87766;-67
2023/09/06 08:12:57;;;;;;;2.47;1.52;;;28.60;73.10;29.20;101369.00;;;;5024108;27;108824;-68
2023/09/06 08:15:23;;;;;;;3.33;2.20;;;28.90;71.50;29.40;101359.00;;;;5023940;27;100944;-69
2023/09/06 08:17:49;;;;;;;2.03;1.38;;;29.10;67.70;29.50;101356.00;;;;5029430;27;88650;-69
2023/09/06 08:20:16;;;;;;;1.90;1.70;;;29.30;66.70;29.70;101360.00;;;;4997838;27;87713;-70
2023/09/06 08:22:42;;;;;;;1.65;1.23;;;29.40;66.90;29.90;101368.00;;;;5025610;27;88870;-70
2023/09/06 08:25:08;;;;;;;2.47;1.33;;;29.60;65.00;30.00;101364.00;;;;5026364;27;89805;-70
2023/09/06 08:27:34;;;;;;;1.35;1.23;;;29.70;63.40;30.10;101352.00;;;;5028467;27;119555;-70
2023/09/06 08:30:00;;;;;;;4.10;1.60;;;29.90;63.70;30.40;101370.00;;;;5027794;27;109674;-70
2023/09/06 08:32:25;;;;;;;1.05;0.77;;;30.00;63.40;30.60;101365.00;;;;5025927;27;106930;-70
2023/09/06 08:34:51;;;;;;;3.67;1.63;;;30.30;63.10;30.80;101374.00;;;;5025055;27;117792;-69
2023/09/06 08:37:17;;;;;;;2.38;1.23;;;30.50;62.10;30.90;101374.00;;;;5026190;27;119039;-69
2023/09/06 08:39:43;;;;;;;2.88;1.38;;;30.60;60.80;31.00;101372.00;;;;5027270;27;110093;-69
2023/09/06 08:42:09;;;;;;;2.10;1.73;;;30.70;58.90;31.20;101373.00;;;;5030688;27;87226;-69
2023/09/06 08:44:37;;;;;;;2.38;1.83;;;30.90;58.20;31.30;101376.00;;;;5024931;27;116492;-69
2023/09/06 08:47:08;;;;;;;3.35;1.60;;;31.00;57.00;31.40;101377.00;;;;5030249;27;116464;-69
2023/09/06 08:49:35;;;;;;;2.30;1.83;;;31.10;56.20;31.40;101383.00;;;;5010018;27;107734;-70
2023/09/06 08:52:02;;;;;;;4.30;1.67;;;31.10;56.10;31.60;101384.00;;;;5024962;27;108830;-69
2023/09/06 08:54:28;;;;;;;1.48;1.38;;;31.30;55.70;31.60;101380.00;;;;5010242;27;89423;-70
2023/09/06 08:56:55;;;;;;;1.05;1.02;;;31.30;54.60;31.60;101387.00;;;;5013017;27;95777;-69
2023/09/06 08:59:21;;;;;;;1.20;1.10;;;31.40;53.10;31.50;101379.00;;;;5026746;27;108253;-71
2023/09/06 09:01:46;;;;;;;1.70;1.35;;;31.30;52.70;31.50;101382.00;;;;5005375;27;106710;-70
2023/09/06 09:04:12;;;;;;;2.45;1.70;;;31.30;52.90;31.60;101388.00;;;;5021071;27;117788;-71
2023/09/06 09:06:43;;;;;;;4.85;1.88;;;31.30;52.70;31.70;101388.00;;;;5028874;27;111370;-70
2023/09/06 09:09:15;;;;;;;2.35;1.55;;;32.20;52.80;31.80;101386.00;;;;5010657;27;109707;-70
2023/09/06 09:11:46;;;;;;;1.33;1.23;;;31.50;51.40;31.80;101384.00;;;;5001239;27;88097;-70
2023/09/06 09:14:23;;;;;;;2.33;1.60;;;31.50;50.70;31.80;101391.00;;;;5008586;27;89027;-69
2023/09/06 09:16:56;;;;;;;2.03;1.20;;;31.50;50.50;31.70;101385.00;;;;5000465;27;90234;-70
2023/09/06 09:19:23;;;;;;;2.42;1.35;;;31.40;50.40;31.80;101394.00;;;;5026308;27;87931;-70
2023/09/06 09:21:53;;;;;;;2.42;1.42;;;31.50;50.40;31.90;101393.00;;;;5023054;27;88157;-70
2023/09/06 09:24:29;;;;;;;2.50;1.00;;;31.50;49.30;31.90;101392.00;;;;5026895;27;90070;-69
2023/09/06 09:27:01;;;;;;;3.25;1.48;;;31.60;47.90;31.80;101394.00;;;;5009459;27;88030;-70
2023/09/06 09:29:29;;;;;;;1.45;1.00;;;31.50;47.20;31.60;101390.00;;;;5009677;27;88017;-69
2023/09/06 09:32:04;;;;;;;1.02;0.82;;;31.30;47.20;31.50;101394.00;;;;5026626;27;89079;-70
2023/09/06 09:34:31;;;;;;;3.05;1.88;;;31.10;47.80;31.60;101395.00;;;;5021734;27;88857;-70
2023/09/06 09:36:57;;;;;;;1.90;1.02;;;31.10;47.60;31.50;101392.00;;;;5025759;27;88135;-72
2023/09/06 09:39:26;;;;;;;2.03;1.33;;;31.10;47.30;31.50;101399.00;;;;5033359;27;88926;-71
2023/09/06 09:41:57;;;;;;;1.38;1.15;;;31.00;46.40;31.20;101399.00;;;;5030467;27;87783;-70
2023/09/06 09:44:22;;;;;;;1.52;1.10;;;30.90;46.80;31.00;101397.00;;;;5029905;27;87788;-68
2023/09/06 09:46:54;;;;;;;2.05;1.30;;;30.60;47.40;31.20;101385.00;;;;5025986;27;118561;-69
2023/09/06 09:49:21;;;;;;;2.60;1.40;;;30.60;48.30;31.40;101390.00;;;;5029826;27;87701;-69
2023/09/06 09:51:50;;;;;;;2.25;1.00;;;30.80;47.00;31.60;101385.00;;;;5010908;27;92477;-69
2023/09/06 09:54:17;;;;;;;1.67;1.20;;;30.90;47.70;31.80;101379.00;;;;5028056;27;88712;-71
2023/09/06 09:57:04;;;;;;;2.28;1.20;;;31.10;46.90;31.70;101373.00;;;;5013815;27;88285;-71
2023/09/06 09:59:33;;;;;;;1.85;1.20;;;31.20;45.90;31.80;101377.00;;;;5025474;27;87859;-69
2023/09/06 10:02:00;;;;;;;2.28;1.63;;;31.10;46.30;31.80;101376.00;;;;5026830;27;87923;-70
2023/09/06 10:04:28;;;;;;;1.10;0.98;;;31.00;45.40;31.80;101373.00;;;;5005849;27;89119;-69
2023/09/06 10:06:57;;;;;;;1.38;1.27;;;31.20;45.80;31.60;101371.00;;;;5015796;27;89902;-70
2023/09/06 10:09:23;;;;;;;1.48;1.25;;;31.00;45.60;31.50;101375.00;;;;5025032;27;87993;-70
2023/09/06 10:11:51;;;;;;;1.42;1.33;;;30.90;46.00;31.60;101373.00;;;;5033306;27;87750;-69
2023/09/06 10:14:25;;;;;;;1.75;1.20;;;30.90;45.90;31.70;101371.00;;;;5011908;27;87642;-70
2023/09/06 10:16:52;;;;;;;1.67;0.90;;;31.00;46.10;31.90;101370.00;;;;5027917;27;87961;-70
2023/09/06 10:19:19;;;;;;;1.58;1.15;;;31.10;46.10;32.20;101364.00;;;;5025772;27;88006;-70
2023/09/06 10:21:46;;;;;;;0.93;0.93;;;31.40;45.80;32.40;101369.00;;;;5030494;27;87370;-71
2023/09/06 10:24:18;;;;;;;2.03;1.02;;;31.60;46.00;32.80;101370.00;;;;5007278;27;88778;-69
2023/09/06 10:26:47;;;;;;;1.25;1.15;;;31.90;45.70;33.30;101368.00;;;;4995592;27;88854;-68
2023/09/06 10:29:29;;;;;;;1.67;1.02;;;32.40;44.80;33.70;101372.00;;;;5005503;27;89500;-67
2023/09/06 10:32:03;;;;;;;3.70;1.58;;;32.70;44.60;34.20;101379.00;;;;5027120;27;90749;-68
2023/09/06 10:34:33;;;;;;;1.35;1.15;;;33.30;44.80;34.70;101370.00;;;;5029858;27;88722;-70
2023/09/06 10:37:00;;;;;;;1.20;1.05;;;33.70;43.90;35.10;101376.00;;;;5024067;27;88942;-70
2023/09/06 10:39:28;;;;;;;1.10;1.00;;;34.10;43.20;35.40;101375.00;;;;5023295;27;87924;-70
2023/09/06 10:42:11;;;;;;;1.30;1.00;;;34.50;41.30;35.70;101378.00;;;;5026810;27;87733;-69
2023/09/06 10:44:54;;;;;;;2.45;1.30;;;34.80;40.80;36.00;101374.00;;;;5011134;27;90720;-70
2023/09/06 10:47:27;;;;;;;4.13;1.33;;;35.10;40.30;36.20;101389.00;;;;5026303;27;87124;-70
2023/09/06 10:50:21;;;;;;;2.78;1.13;;;35.30;40.50;36.30;101380.00;;;;5025669;27;87964;-68